Time;durP1;ratioP1;P1;durP2;ratioP2;P2;SDS_P1;SDS_P2;PMS_P1;PMS_P2;Temp;Humidity;BMP_temperature;BMP_pressure;BME280_temperature;BME280_humidity;BME280_pressure;Samples;Min_cycle;Max_cycle;Signal;HPM_P1;HPM_P2
2024/01/01 00:00:47;;;;;;;35.53;20.92;;;8.60;87.70;;;;;;4881788;29;20037;-79
2024/01/01 00:03:13;;;;;;;30.35;21.60;;;8.70;87.60;;;;;;4878645;29;20036;-79
2024/01/01 00:05:38;;;;;;;46.60;19.67;;;8.70;87.50;;;;;;4885305;29;20055;-80
2024/01/01 00:08:05;;;;;;;26.20;17.20;;;8.70;87.30;;;;;;4865184;29;20049;-80
2024/01/01 00:10:30;;;;;;;27.80;17.92;;;8.70;87.20;;;;;;4884498;29;20067;-80
2024/01/01 00:12:56;;;;;;;30.95;16.90;;;8.70;87.00;;;;;;4883683;29;20500;-80
2024/01/01 00:15:21;;;;;;;24.08;13.98;;;8.70;86.90;;;;;;4907529;29;20041;-80
2024/01/01 00:17:47;;;;;;;27.15;15.63;;;8.70;86.50;;;;;;4898242;29;20041;-80
2024/01/01 00:20:12;;;;;;;22.77;13.95;;;8.80;86.50;;;;;;4904031;29;21592;-80
2024/01/01 00:22:38;;;;;;;20.75;13.20;;;8.80;86.40;;;;;;4901490;29;20040;-80
2024/01/01 00:25:04;;;;;;;24.75;12.82;;;8.70;86.10;;;;;;4888458;29;20087;-80
2024/01/01 00:27:33;;;;;;;23.70;11.25;;;8.80;85.90;;;;;;4900342;29;20043;-80
2024/01/01 00:29:59;;;;;;;20.70;12.15;;;8.70;85.60;;;;;;4899592;29;20073;-80
2024/01/01 00:32:24;;;;;;;21.83;13.23;;;8.80;85.60;;;;;;4881491;29;20498;-80
2024/01/01 00:34:50;;;;;;;24.10;13.25;;;8.80;85.50;;;;;;4897865;29;20037;-79
2024/01/01 00:37:16;;;;;;;23.45;13.35;;;8.70;85.50;;;;;;4900767;29;20049;-79
2024/01/01 00:39:42;;;;;;;23.42;12.98;;;8.80;85.50;;;;;;4884546;29;20051;-79
2024/01/01 00:42:08;;;;;;;18.48;13.25;;;8.80;85.50;;;;;;4885073;29;20056;-79
2024/01/01 00:44:33;;;;;;;24.35;13.20;;;8.80;85.60;;;;;;4898810;29;20470;-80
2024/01/01 00:46:59;;;;;;;22.75;14.73;;;8.80;85.50;;;;;;4897055;29;20047;-80
2024/01/01 00:49:25;;;;;;;28.48;15.73;;;8.80;85.30;;;;;;4884616;29;20036;-80
2024/01/01 00:51:50;;;;;;;21.27;14.63;;;8.80;85.10;;;;;;4901342;29;20407;-80
2024/01/01 00:54:16;;;;;;;28.58;16.73;;;8.80;85.20;;;;;;4904614;29;20048;-80
2024/01/01 00:56:42;;;;;;;24.50;16.02;;;8.90;85.20;;;;;;4884871;29;20040;-80
2024/01/01 00:59:07;;;;;;;25.70;16.77;;;8.80;85.00;;;;;;4904437;29;20092;-79
2024/01/01 01:01:33;;;;;;;27.10;16.13;;;8.80;85.00;;;;;;4903366;29;20127;-80
2024/01/01 01:03:58;;;;;;;26.08;15.85;;;8.80;84.90;;;;;;4907505;29;20041;-80
2024/01/01 01:06:24;;;;;;;25.90;16.90;;;8.80;84.80;;;;;;4907319;29;20060;-79
2024/01/01 01:08:49;;;;;;;27.20;18.70;;;8.80;84.80;;;;;;4905331;29;20048;-79
2024/01/01 01:11:15;;;;;;;29.25;18.60;;;8.80;84.70;;;;;;4904858;29;20071;-79
2024/01/01 01:13:41;;;;;;;30.98;17.92;;;8.80;84.60;;;;;;4897470;29;20406;-80
2024/01/01 01:16:06;;;;;;;26.67;16.63;;;8.80;84.50;;;;;;4881370;29;20041;-79
2024/01/01 01:18:32;;;;;;;21.50;15.13;;;8.80;84.60;;;;;;4883856;29;20056;-80
2024/01/01 01:20:57;;;;;;;25.55;16.42;;;8.80;84.70;;;;;;4882772;29;20040;-79
2024/01/01 01:23:23;;;;;;;24.35;14.63;;;9.10;84.70;;;;;;4887809;29;20535;-79
2024/01/01 01:25:49;;;;;;;22.85;15.95;;;8.80;84.40;;;;;;4901920;29;20066;-80
2024/01/01 01:28:22;;;;;;;23.20;15.23;;;8.70;84.30;;;;;;4906379;29;20052;-79
2024/01/01 01:30:48;;;;;;;23.30;15.48;;;8.70;84.20;;;;;;4909174;29;20055;-79
2024/01/01 01:33:13;;;;;;;26.00;15.30;;;8.80;84.30;;;;;;4903646;29;20045;-79
2024/01/01 01:35:39;;;;;;;25.70;16.38;;;8.70;84.10;;;;;;4897592;29;20059;-81
2024/01/01 01:38:04;;;;;;;22.75;15.95;;;8.70;84.00;;;;;;4896122;29;20045;-80
2024/01/01 01:40:30;;;;;;;23.63;16.25;;;8.70;84.00;;;;;;4901103;29;20471;-80
2024/01/01 01:42:55;;;;;;;22.17;16.60;;;8.70;84.10;;;;;;4889924;29;20112;-80
2024/01/01 01:45:22;;;;;;;25.80;18.15;;;8.70;84.00;;;;;;4902327;29;20052;-80
2024/01/01 01:47:48;;;;;;;26.17;19.08;;;8.70;84.00;;;;;;4886130;29;20538;-80
2024/01/01 01:50:14;;;;;;;23.88;18.25;;;8.70;84.00;;;;;;4903461;29;20052;-80
2024/01/01 01:52:42;;;;;;;31.17;18.85;;;8.70;83.90;;;;;;4903615;29;20059;-80
2024/01/01 01:55:08;;;;;;;24.55;17.70;;;8.70;83.90;;;;;;4901554;29;20123;-79
2024/01/01 01:57:36;;;;;;;28.95;18.70;;;8.70;83.70;;;;;;4903649;29;20076;-79
2024/01/01 02:00:04;;;;;;;27.38;17.90;;;8.70;83.70;;;;;;4903467;29;20119;-79
2024/01/01 02:02:35;;;;;;;24.50;16.85;;;8.70;83.60;;;;;;4905769;29;20540;-79
2024/01/01 02:05:04;;;;;;;26.17;17.23;;;8.70;83.60;;;;;;4887873;29;20045;-80
2024/01/01 02:07:30;;;;;;;23.40;15.10;;;8.70;83.60;;;;;;4911924;29;20048;-80
2024/01/01 02:09:57;;;;;;;20.60;14.93;;;8.60;83.30;;;;;;4894882;29;20040;-80
2024/01/01 02:12:22;;;;;;;21.00;14.70;;;8.70;83.30;;;;;;4901384;29;20060;-80
2024/01/01 02:14:48;;;;;;;22.73;14.38;;;8.60;83.30;;;;;;4907391;29;20036;-80
2024/01/01 02:17:15;;;;;;;23.65;14.10;;;8.60;83.30;;;;;;4887662;29;20172;-80
2024/01/01 02:19:41;;;;;;;22.40;13.75;;;8.60;83.40;;;;;;4879219;29;20065;-79
2024/01/01 02:22:07;;;;;;;23.77;14.35;;;8.60;83.50;;;;;;4886940;29;20119;-79
2024/01/01 02:24:33;;;;;;;21.58;13.27;;;8.60;84.00;;;;;;4883378;29;20079;-78
2024/01/01 02:26:58;;;;;;;22.23;13.63;;;8.60;84.00;;;;;;4880176;29;20096;-78
2024/01/01 02:29:24;;;;;;;24.92;13.38;;;8.60;84.50;;;;;;4874885;29;20045;-78
2024/01/01 02:31:50;;;;;;;17.88;11.18;;;8.60;85.00;;;;;;4905717;29;20044;-84
2024/01/01 02:34:19;;;;;;;23.73;12.27;;;8.50;85.20;;;;;;4892625;29;20036;-79
2024/01/01 02:36:45;;;;;;;18.27;10.88;;;8.50;85.60;;;;;;4890123;29;20063;-79
2024/01/01 02:39:11;;;;;;;21.17;10.90;;;8.50;85.80;;;;;;4900627;29;20032;-80
2024/01/01 02:41:37;;;;;;;19.35;10.73;;;8.50;86.00;;;;;;4884184;29;20049;-80
2024/01/01 02:44:04;;;;;;;18.33;10.57;;;8.50;86.40;;;;;;4886514;29;20118;-80
2024/01/01 02:46:30;;;;;;;17.35;10.25;;;8.50;86.50;;;;;;4883130;29;20036;-79
2024/01/01 02:48:55;;;;;;;15.95;9.10;;;8.50;86.60;;;;;;4879888;29;20100;-79
2024/01/01 02:51:21;;;;;;;15.30;9.65;;;8.40;86.70;;;;;;4899299;29;20388;-79
2024/01/01 02:53:47;;;;;;;16.27;8.48;;;8.40;86.80;;;;;;4878801;29;20045;-79
2024/01/01 02:56:21;;;;;;;15.65;8.80;;;8.40;86.90;;;;;;4880993;29;20059;-79
2024/01/01 02:58:47;;;;;;;15.48;8.13;;;8.40;87.00;;;;;;4895862;29;20041;-79
2024/01/01 03:01:13;;;;;;;13.27;7.82;;;8.40;87.20;;;;;;4881339;29;20502;-79
2024/01/01 03:03:39;;;;;;;13.27;7.38;;;8.30;87.30;;;;;;4892109;29;20033;-80
2024/01/01 03:06:06;;;;;;;14.98;7.63;;;8.30;87.50;;;;;;4902188;29;20514;-80
2024/01/01 03:08:36;;;;;;;12.80;7.60;;;8.30;87.60;;;;;;4897965;29;20040;-79
2024/01/01 03:11:03;;;;;;;11.20;6.10;;;8.30;87.80;;;;;;4900965;29;20709;-79
2024/01/01 03:13:29;;;;;;;10.82;6.28;;;8.30;87.90;;;;;;4898058;29;20111;-80
2024/01/01 03:15:54;;;;;;;12.35;6.22;;;8.30;88.00;;;;;;4865895;29;20083;-79
2024/01/01 03:18:21;;;;;;;13.68;5.65;;;8.20;88.10;;;;;;4893986;29;20059;-80
2024/01/01 03:20:46;;;;;;;13.70;5.70;;;8.20;88.20;;;;;;4882722;29;20045;-80
2024/01/01 03:23:12;;;;;;;12.38;4.80;;;8.20;88.40;;;;;;4884667;29;20107;-80
2024/01/01 03:25:38;;;;;;;12.68;5.40;;;8.20;88.40;;;;;;4898870;29;20036;-80
2024/01/01 03:28:03;;;;;;;10.48;5.88;;;8.20;88.70;;;;;;4895122;29;20044;-80
2024/01/01 03:30:29;;;;;;;12.63;5.43;;;8.20;88.70;;;;;;4879914;29;20454;-79
2024/01/01 03:32:54;;;;;;;15.63;5.35;;;8.20;88.80;;;;;;4864717;29;20045;-80
2024/01/01 03:35:20;;;;;;;12.02;4.85;;;8.40;89.00;;;;;;4881408;29;20045;-80
2024/01/01 03:37:46;;;;;;;11.98;4.05;;;8.20;89.00;;;;;;4881901;29;20037;-80
2024/01/01 03:40:12;;;;;;;9.85;4.03;;;8.10;88.90;;;;;;4899964;29;20028;-80
2024/01/01 03:42:38;;;;;;;11.25;3.63;;;8.10;89.00;;;;;;4878183;29;20115;-80
2024/01/01 03:45:04;;;;;;;9.02;3.35;;;8.10;89.00;;;;;;4881107;29;20488;-79
2024/01/01 03:47:32;;;;;;;7.50;3.60;;;8.10;89.00;;;;;;4896467;29;20028;-80
2024/01/01 03:49:58;;;;;;;8.05;3.50;;;8.10;89.10;;;;;;4882251;29;20131;-80
2024/01/01 03:52:24;;;;;;;9.55;3.00;;;8.10;89.00;;;;;;4893669;29;20488;-80
2024/01/01 03:54:49;;;;;;;7.97;2.65;;;8.10;89.10;;;;;;4894190;29;20079;-79
2024/01/01 03:57:15;;;;;;;10.32;2.92;;;8.10;89.10;;;;;;4880704;29;20037;-80
2024/01/01 03:59:41;;;;;;;7.22;3.00;;;8.10;89.10;;;;;;4897754;29;20047;-80
2024/01/01 04:02:09;;;;;;;7.40;2.65;;;8.00;89.10;;;;;;4897729;29;20044;-80
2024/01/01 04:04:35;;;;;;;6.93;2.70;;;8.00;89.10;;;;;;4892316;29;20389;-80
2024/01/01 04:07:01;;;;;;;7.18;3.22;;;8.00;89.20;;;;;;4895255;29;20049;-79
2024/01/01 04:09:26;;;;;;;8.55;2.67;;;8.00;89.20;;;;;;4880608;29;20452;-81
2024/01/01 04:11:52;;;;;;;11.07;3.10;;;8.00;89.30;;;;;;4893755;29;20041;-80
2024/01/01 04:14:17;;;;;;;7.70;2.25;;;8.00;89.40;;;;;;4897421;29;20124;-80
2024/01/01 04:16:43;;;;;;;9.32;2.90;;;8.00;89.50;;;;;;4881190;29;20056;-81
2024/01/01 04:19:08;;;;;;;5.43;2.80;;;7.90;89.50;;;;;;4875850;29;20049;-80
2024/01/01 04:21:38;;;;;;;9.13;2.78;;;8.00;89.80;;;;;;4879693;29;20100;-80
2024/01/01 04:24:06;;;;;;;8.05;2.65;;;7.90;89.80;;;;;;4875130;29;20056;-80
2024/01/01 04:26:31;;;;;;;7.85;2.65;;;7.90;89.90;;;;;;4883683;29;20059;-80
2024/01/01 04:28:57;;;;;;;10.00;2.70;;;7.90;90.00;;;;;;4860973;29;20044;-81
2024/01/01 04:31:23;;;;;;;9.15;3.60;;;7.90;90.00;;;;;;4880406;29;20048;-80
2024/01/01 04:33:48;;;;;;;10.88;3.50;;;7.90;90.10;;;;;;4876632;29;20044;-80
2024/01/01 04:36:14;;;;;;;12.40;3.75;;;7.90;90.10;;;;;;4881418;29;20052;-80
2024/01/01 04:38:39;;;;;;;12.77;3.47;;;7.90;90.20;;;;;;4895741;29;20041;-81
2024/01/01 04:41:05;;;;;;;10.20;2.83;;;7.90;90.20;;;;;;4896204;29;20041;-81
2024/01/01 04:43:30;;;;;;;9.32;3.05;;;7.90;90.30;;;;;;4880821;29;20036;-81
2024/01/01 04:45:56;;;;;;;9.23;3.20;;;7.90;90.30;;;;;;4884551;29;20072;-81
2024/01/01 04:48:22;;;;;;;13.60;3.63;;;7.90;90.40;;;;;;4884615;29;20076;-81
2024/01/01 04:50:48;;;;;;;9.80;2.88;;;7.90;90.40;;;;;;4887546;29;20048;-81
2024/01/01 04:53:14;;;;;;;11.30;3.92;;;7.90;90.50;;;;;;4872902;29;20626;-81
2024/01/01 04:55:39;;;;;;;10.63;3.25;;;7.90;90.50;;;;;;4887380;29;20049;-81
2024/01/01 04:58:05;;;;;;;9.95;3.13;;;7.90;90.50;;;;;;4887115;29;20072;-81
2024/01/01 05:00:31;;;;;;;9.35;3.05;;;7.90;90.60;;;;;;4887462;29;20480;-81
2024/01/01 05:02:56;;;;;;;12.48;3.42;;;7.90;90.60;;;;;;4887723;29;20051;-82
2024/01/01 05:05:23;;;;;;;8.90;2.85;;;7.90;90.70;;;;;;4888050;29;20048;-81
2024/01/01 05:07:50;;;;;;;15.43;4.00;;;7.90;90.70;;;;;;4870979;29;20085;-81
2024/01/01 05:10:16;;;;;;;10.27;3.60;;;7.90;91.00;;;;;;4886063;29;20036;-80
2024/01/01 05:12:43;;;;;;;12.70;3.85;;;7.90;90.80;;;;;;4886591;29;20412;-81
2024/01/01 05:15:11;;;;;;;12.18;3.60;;;7.90;90.80;;;;;;4870347;29;20045;-81
2024/01/01 05:17:37;;;;;;;9.10;3.05;;;7.90;90.90;;;;;;4886425;29;20064;-81
2024/01/01 05:20:03;;;;;;;12.30;3.50;;;8.30;91.00;;;;;;4885418;29;20059;-81
2024/01/01 05:22:30;;;;;;;11.70;3.72;;;7.90;90.90;;;;;;4885376;29;20065;-81
2024/01/01 05:24:56;;;;;;;8.73;3.38;;;7.90;91.00;;;;;;4885855;29;20100;-81
2024/01/01 05:27:21;;;;;;;12.45;2.88;;;7.90;91.00;;;;;;4885858;29;20037;-81
2024/01/01 05:29:47;;;;;;;11.13;3.13;;;7.90;91.00;;;;;;4885434;29;20515;-80
2024/01/01 05:32:13;;;;;;;11.88;3.50;;;7.90;91.00;;;;;;4885824;29;20044;-81
2024/01/01 05:34:41;;;;;;;12.57;3.92;;;7.90;91.00;;;;;;4885145;29;20045;-81
2024/01/01 05:37:06;;;;;;;8.48;2.83;;;7.90;91.10;;;;;;4885909;29;20416;-81
2024/01/01 05:39:33;;;;;;;10.15;3.17;;;7.90;91.10;;;;;;4881524;29;20120;-81
2024/01/01 05:41:58;;;;;;;13.02;4.28;;;8.00;91.10;;;;;;4885631;29;20100;-81
2024/01/01 05:44:24;;;;;;;15.43;4.05;;;8.00;91.20;;;;;;4885483;29;20040;-81
2024/01/01 05:46:49;;;;;;;11.55;3.70;;;8.00;91.20;;;;;;4885238;29;20040;-81
2024/01/01 05:49:15;;;;;;;13.35;3.47;;;8.00;91.20;;;;;;4884973;29;20055;-81
2024/01/01 05:51:41;;;;;;;13.90;3.70;;;8.00;91.20;;;;;;4885077;29;20029;-82
2024/01/01 05:54:06;;;;;;;11.50;2.70;;;7.90;91.20;;;;;;4885786;29;20469;-81
2024/01/01 05:56:32;;;;;;;8.80;2.65;;;8.00;91.30;;;;;;4884880;29;20044;-80
2024/01/01 05:58:58;;;;;;;10.82;3.60;;;7.90;91.40;;;;;;4884948;29;20068;-80
2024/01/01 06:01:23;;;;;;;11.35;3.13;;;8.00;91.20;;;;;;4884911;29;20088;-80
2024/01/01 06:03:49;;;;;;;10.70;3.03;;;8.00;91.30;;;;;;4885206;29;20408;-80
2024/01/01 06:06:15;;;;;;;14.13;3.45;;;8.00;91.30;;;;;;4902227;29;20097;-80
2024/01/01 06:08:41;;;;;;;9.73;3.00;;;8.00;91.30;;;;;;4900881;29;20059;-82
2024/01/01 06:11:06;;;;;;;10.00;3.05;;;8.00;91.30;;;;;;4902491;29;20119;-80
2024/01/01 06:13:32;;;;;;;11.55;3.25;;;8.00;91.30;;;;;;4884088;29;20044;-81
2024/01/01 06:15:58;;;;;;;9.60;2.50;;;8.00;91.30;;;;;;4901211;29;20040;-80
2024/01/01 06:18:25;;;;;;;9.38;2.88;;;8.00;91.30;;;;;;4884293;29;20056;-81
2024/01/01 06:20:51;;;;;;;12.13;3.83;;;8.00;91.40;;;;;;4896977;29;20111;-80
2024/01/01 06:23:17;;;;;;;8.95;3.08;;;8.00;91.40;;;;;;4901533;29;20492;-80
2024/01/01 06:25:42;;;;;;;10.88;2.78;;;8.00;91.40;;;;;;4900857;29;20131;-80
2024/01/01 06:28:08;;;;;;;8.13;2.95;;;8.00;91.40;;;;;;4884640;29;20051;-80
2024/01/01 06:30:34;;;;;;;11.80;3.20;;;8.00;91.40;;;;;;4883602;29;20052;-80
2024/01/01 06:33:01;;;;;;;12.13;2.95;;;8.00;91.40;;;;;;4885151;29;20469;-81
2024/01/01 06:35:30;;;;;;;10.18;3.30;;;8.00;91.40;;;;;;4884267;29;20045;-80
2024/01/01 06:37:56;;;;;;;9.18;2.80;;;8.00;91.40;;;;;;4900305;29;20055;-80
2024/01/01 06:40:22;;;;;;;7.32;2.40;;;8.00;91.40;;;;;;4896733;29;20040;-80
2024/01/01 06:42:47;;;;;;;13.00;3.88;;;8.00;91.40;;;;;;4883044;29;20048;-80
2024/01/01 06:45:14;;;;;;;8.90;2.33;;;8.00;91.40;;;;;;4882956;29;20480;-80
2024/01/01 06:47:39;;;;;;;9.10;3.13;;;8.00;91.40;;;;;;4884228;29;20445;-80
2024/01/01 06:50:05;;;;;;;10.45;3.53;;;8.00;91.40;;;;;;4883163;29;20037;-80
2024/01/01 06:52:31;;;;;;;8.95;2.63;;;8.00;91.60;;;;;;4883277;29;20045;-80
2024/01/01 06:54:56;;;;;;;10.57;3.40;;;8.00;91.40;;;;;;4900153;29;20056;-80
2024/01/01 06:57:22;;;;;;;7.20;2.80;;;8.00;91.40;;;;;;4899583;29;20044;-80
2024/01/01 06:59:48;;;;;;;9.95;2.70;;;8.00;91.40;;;;;;4878917;29;20056;-80
2024/01/01 07:02:13;;;;;;;13.23;2.90;;;8.10;91.40;;;;;;4899798;29;20041;-81
2024/01/01 07:04:39;;;;;;;9.00;2.70;;;8.00;91.40;;;;;;4882033;29;20044;-80
2024/01/01 07:07:04;;;;;;;8.75;2.50;;;8.00;91.40;;;;;;4882596;29;20124;-80
2024/01/01 07:09:31;;;;;;;10.77;2.95;;;8.00;91.40;;;;;;4883232;29;20072;-80
2024/01/01 07:11:59;;;;;;;10.13;2.60;;;8.00;91.40;;;;;;4881700;29;20045;-80
2024/01/01 07:14:25;;;;;;;9.75;2.25;;;8.00;91.40;;;;;;4899736;29;20057;-80
2024/01/01 07:16:54;;;;;;;8.23;1.80;;;8.00;91.40;;;;;;4898891;29;20071;-80
2024/01/01 07:19:19;;;;;;;5.72;1.98;;;8.20;91.40;;;;;;4899737;29;20595;-80
2024/01/01 07:21:47;;;;;;;9.82;2.20;;;8.00;91.30;;;;;;4898316;29;20072;-81
2024/01/01 07:24:13;;;;;;;7.60;2.30;;;8.00;91.30;;;;;;4901006;29;20062;-80
2024/01/01 07:26:38;;;;;;;9.43;2.53;;;8.00;91.30;;;;;;4882827;29;20044;-80
2024/01/01 07:29:05;;;;;;;13.73;3.05;;;8.00;91.30;;;;;;4882469;29;20401;-80
2024/01/01 07:31:31;;;;;;;11.13;3.35;;;8.10;91.40;;;;;;4898449;29;20072;-80
2024/01/01 07:33:56;;;;;;;10.02;2.72;;;8.00;91.40;;;;;;4880665;29;20127;-80
2024/01/01 07:36:22;;;;;;;12.98;3.95;;;8.00;91.40;;;;;;4881568;29;20048;-80
2024/01/01 07:38:47;;;;;;;12.82;2.90;;;8.00;91.40;;;;;;4898526;29;20494;-80
2024/01/01 07:41:13;;;;;;;13.00;3.90;;;8.00;91.40;;;;;;4881285;29;20075;-81
2024/01/01 07:43:39;;;;;;;11.30;3.35;;;8.10;91.50;;;;;;4882176;29;20041;-80
2024/01/01 07:46:08;;;;;;;17.65;3.63;;;8.10;91.50;;;;;;4882017;29;20394;-80
2024/01/01 07:48:33;;;;;;;11.35;2.97;;;8.10;91.50;;;;;;4898347;29;20040;-80
2024/01/01 07:51:00;;;;;;;12.38;3.22;;;8.10;91.50;;;;;;4881743;29;20073;-81
2024/01/01 07:53:25;;;;;;;15.45;3.70;;;8.10;91.50;;;;;;4882213;29;20051;-80
2024/01/01 07:55:51;;;;;;;16.00;3.28;;;8.10;91.50;;;;;;4876689;29;20041;-81
2024/01/01 07:58:16;;;;;;;13.15;4.03;;;8.10;91.60;;;;;;4873667;29;20047;-80
2024/01/01 08:00:42;;;;;;;15.00;3.63;;;8.10;91.60;;;;;;4861536;29;20052;-80
2024/01/01 08:03:07;;;;;;;17.00;4.18;;;8.10;91.60;;;;;;4879777;29;20473;-80
2024/01/01 08:05:33;;;;;;;14.23;3.92;;;8.10;91.60;;;;;;4883117;29;20060;-80
2024/01/01 08:07:59;;;;;;;13.32;3.42;;;8.10;91.60;;;;;;4883202;29;20041;-80
2024/01/01 08:10:25;;;;;;;13.70;2.83;;;8.40;91.70;;;;;;4884252;29;20174;-80
2024/01/01 08:12:50;;;;;;;15.68;3.58;;;8.10;91.70;;;;;;4883284;29;20540;-80
2024/01/01 08:15:16;;;;;;;14.63;3.70;;;8.10;91.70;;;;;;4883951;29;20044;-80
2024/01/01 08:17:44;;;;;;;12.73;3.80;;;8.10;91.70;;;;;;4898654;29;20052;-80
2024/01/01 08:20:10;;;;;;;10.68;3.40;;;8.10;91.70;;;;;;4899770;29;20067;-80
2024/01/01 08:22:36;;;;;;;14.60;3.50;;;8.10;91.70;;;;;;4881981;29;20500;-81
2024/01/01 08:25:02;;;;;;;14.50;3.97;;;8.10;91.70;;;;;;4885750;29;20040;-80
2024/01/01 08:27:27;;;;;;;11.77;3.83;;;8.10;91.70;;;;;;4902224;29;20454;-82
2024/01/01 08:29:53;;;;;;;11.35;3.25;;;8.40;91.80;;;;;;4902337;29;20032;-81
2024/01/01 08:32:19;;;;;;;14.45;3.78;;;8.10;91.70;;;;;;4885345;29;20127;-81
2024/01/01 08:34:44;;;;;;;16.17;3.35;;;8.10;91.70;;;;;;4883256;29;20071;-81
2024/01/01 08:37:10;;;;;;;9.10;2.75;;;8.10;91.70;;;;;;4901868;29;20065;-81
2024/01/01 08:39:35;;;;;;;11.25;3.10;;;8.10;91.70;;;;;;4883348;29;20059;-78
2024/01/01 08:42:01;;;;;;;14.80;3.65;;;8.10;91.70;;;;;;4898545;29;20036;-79
2024/01/01 08:44:26;;;;;;;11.13;2.83;;;8.10;91.70;;;;;;4900485;29;20182;-78
2024/01/01 08:46:52;;;;;;;11.07;2.78;;;8.10;91.70;;;;;;4899193;29;20073;-78
2024/01/01 08:49:18;;;;;;;8.48;2.65;;;8.10;91.70;;;;;;4882761;29;20037;-78
2024/01/01 08:51:43;;;;;;;10.70;2.80;;;8.10;91.60;;;;;;4899078;29;20060;-80
2024/01/01 08:54:09;;;;;;;10.60;2.25;;;8.10;91.60;;;;;;4885735;29;20040;-80
2024/01/01 08:56:34;;;;;;;13.50;2.58;;;8.10;91.50;;;;;;4883848;29;20052;-81
2024/01/01 08:59:00;;;;;;;9.50;2.55;;;8.10;91.50;;;;;;4883702;29;20045;-80
2024/01/01 09:01:26;;;;;;;7.95;2.42;;;8.10;91.50;;;;;;4885131;29;20041;-80
2024/01/01 09:03:52;;;;;;;13.50;2.80;;;8.10;91.50;;;;;;4884118;29;20068;-80
2024/01/01 09:06:18;;;;;;;13.00;2.42;;;8.10;91.40;;;;;;4884032;29;20044;-80
2024/01/01 09:08:43;;;;;;;15.13;4.03;;;8.10;91.40;;;;;;4867626;29;20500;-80
2024/01/01 09:11:09;;;;;;;13.60;3.20;;;8.10;91.50;;;;;;4885071;29;20045;-80
2024/01/01 09:13:35;;;;;;;10.07;3.38;;;8.10;91.60;;;;;;4885286;29;20202;-80
2024/01/01 09:16:01;;;;;;;11.90;4.05;;;8.10;91.60;;;;;;4885153;29;20493;-80
2024/01/01 09:18:27;;;;;;;18.08;3.10;;;8.10;91.70;;;;;;4880170;29;20091;-80
2024/01/01 09:20:52;;;;;;;14.40;3.28;;;8.10;91.70;;;;;;4881723;29;20073;-81
2024/01/01 09:23:18;;;;;;;10.93;3.22;;;8.20;91.70;;;;;;4881530;29;20069;-80
2024/01/01 09:25:44;;;;;;;9.13;2.92;;;8.20;91.80;;;;;;4881308;29;20123;-80
2024/01/01 09:28:09;;;;;;;18.75;4.50;;;8.10;91.80;;;;;;4882037;29;20073;-80
2024/01/01 09:30:35;;;;;;;17.88;3.30;;;8.20;91.80;;;;;;4881586;29;20128;-80
2024/01/01 09:33:00;;;;;;;14.07;2.92;;;8.20;91.80;;;;;;4881785;29;20033;-80
2024/01/01 09:35:26;;;;;;;13.23;2.90;;;8.20;91.90;;;;;;4883746;29;20097;-81
2024/01/01 09:37:53;;;;;;;9.65;2.80;;;8.20;91.90;;;;;;4880501;29;20072;-80
2024/01/01 09:40:20;;;;;;;11.95;2.28;;;8.20;91.80;;;;;;4883017;29;20098;-81
2024/01/01 09:42:50;;;;;;;9.63;2.03;;;8.20;91.80;;;;;;4880671;29;20042;-81
2024/01/01 09:45:16;;;;;;;9.68;2.20;;;8.20;91.70;;;;;;4880187;29;20036;-81
2024/01/01 09:47:43;;;;;;;9.82;1.85;;;8.20;91.60;;;;;;4880921;29;20045;-80
2024/01/01 09:50:10;;;;;;;7.15;2.10;;;8.20;91.50;;;;;;4881102;29;20041;-80
2024/01/01 09:52:36;;;;;;;11.65;2.33;;;8.20;91.50;;;;;;4892563;29;20437;-82
2024/01/01 09:55:02;;;;;;;7.97;2.03;;;8.20;91.50;;;;;;4878816;29;20053;-80
2024/01/01 09:57:28;;;;;;;9.07;2.05;;;8.20;91.50;;;;;;4878489;29;20041;-80
2024/01/01 09:59:54;;;;;;;12.75;3.72;;;8.20;91.60;;;;;;4865168;29;20044;-80
2024/01/01 10:02:23;;;;;;;9.07;2.17;;;8.20;91.40;;;;;;4879743;29;20033;-80
2024/01/01 10:04:49;;;;;;;7.63;2.15;;;8.20;91.40;;;;;;4880193;29;20049;-80
2024/01/01 10:07:27;;;;;;;11.18;2.50;;;8.20;91.40;;;;;;4877776;29;20516;-80
2024/01/01 10:09:52;;;;;;;10.68;3.28;;;8.20;91.50;;;;;;4881275;29;20040;-80
2024/01/01 10:12:21;;;;;;;10.52;2.35;;;8.20;91.40;;;;;;4881726;29;20485;-80
2024/01/01 10:14:48;;;;;;;11.70;2.38;;;8.30;91.40;;;;;;4878478;29;20510;-78
2024/01/01 10:17:17;;;;;;;12.45;2.00;;;8.30;91.50;;;;;;4878555;29;20072;-80
2024/01/01 10:20:02;;;;;;;11.25;2.67;;;8.30;91.50;;;;;;4876105;29;20509;-80
2024/01/01 10:22:31;;;;;;;12.15;2.42;;;8.40;91.50;;;;;;4891460;29;20446;-79
2024/01/01 10:25:10;;;;;;;14.05;3.15;;;8.30;91.50;;;;;;4878007;29;20128;-79
2024/01/01 10:27:36;;;;;;;7.40;1.65;;;8.40;91.50;;;;;;4874146;29;20100;-79
2024/01/01 10:30:02;;;;;;;9.07;2.42;;;8.40;91.50;;;;;;4858199;29;20036;-78
2024/01/01 10:32:30;;;;;;;9.15;2.53;;;8.40;91.50;;;;;;4873389;29;20041;-78
2024/01/01 10:34:57;;;;;;;9.75;2.40;;;8.40;91.50;;;;;;4874960;29;20041;-78
2024/01/01 10:37:25;;;;;;;11.73;2.30;;;8.50;91.50;;;;;;4871319;29;20502;-79
2024/01/01 10:39:51;;;;;;;6.78;1.70;;;8.50;91.40;;;;;;4879107;29;20493;-79
2024/01/01 10:42:17;;;;;;;13.73;2.28;;;8.50;91.30;;;;;;4871491;29;20038;-78
2024/01/01 10:44:43;;;;;;;9.68;1.98;;;8.50;91.30;;;;;;4873314;29;20097;-80
2024/01/01 10:47:10;;;;;;;13.00;2.13;;;8.50;91.30;;;;;;4874728;29;20041;-78
2024/01/01 10:49:39;;;;;;;12.13;2.50;;;8.60;91.30;;;;;;4874557;29;20053;-78
2024/01/01 10:52:35;;;;;;;11.32;3.13;;;8.50;91.20;;;;;;4876645;29;20576;-78
2024/01/01 10:55:05;;;;;;;22.42;3.33;;;8.60;91.30;;;;;;4879072;29;20568;-79
2024/01/01 10:57:55;;;;;;;12.20;2.83;;;8.60;91.10;;;;;;4877321;29;20045;-79
2024/01/01 11:00:32;;;;;;;8.75;2.15;;;8.60;90.90;;;;;;4877165;29;20052;-79
2024/01/01 11:02:59;;;;;;;10.10;2.60;;;8.60;90.90;;;;;;4875789;29;20048;-78
2024/01/01 11:05:34;;;;;;;12.15;2.22;;;8.60;90.80;;;;;;4879134;29;20044;-78
2024/01/01 11:08:01;;;;;;;11.90;2.42;;;8.60;90.70;;;;;;4876340;29;20409;-79
2024/01/01 11:10:49;;;;;;;15.55;2.95;;;8.60;90.60;;;;;;4875955;29;20045;-84
2024/01/01 11:13:34;;;;;;;12.80;2.42;;;8.50;90.50;;;;;;4880985;29;20041;-79
2024/01/01 11:16:03;;;;;;;11.23;2.50;;;8.50;90.30;;;;;;4879325;29;20049;-79
2024/01/01 11:18:36;;;;;;;11.23;2.60;;;8.50;90.40;;;;;;4869922;29;20061;-78
2024/01/01 11:21:05;;;;;;;13.63;3.45;;;8.50;90.30;;;;;;4887683;29;20045;-78
2024/01/01 11:23:41;;;;;;;13.50;2.50;;;8.50;90.30;;;;;;4877891;29;20116;-79
2024/01/01 11:26:25;;;;;;;9.15;2.78;;;8.40;90.30;;;;;;4878378;29;20041;-79
2024/01/01 11:28:52;;;;;;;13.10;2.67;;;8.40;90.30;;;;;;4879149;29;20109;-79
2024/01/01 11:31:17;;;;;;;11.95;2.67;;;8.40;90.40;;;;;;4872821;29;20037;-79
2024/01/01 11:33:43;;;;;;;13.57;2.75;;;8.40;90.40;;;;;;4876368;29;20528;-79
2024/01/01 11:36:09;;;;;;;12.07;2.30;;;8.30;90.60;;;;;;4878853;29;20580;-79
2024/01/01 11:38:35;;;;;;;19.13;2.92;;;8.40;90.50;;;;;;4876319;29;20033;-78
2024/01/01 11:41:01;;;;;;;13.27;2.25;;;8.40;90.40;;;;;;4879156;29;20087;-78
2024/01/01 11:43:27;;;;;;;16.63;2.92;;;8.30;90.40;;;;;;4876036;29;20069;-78
2024/01/01 11:45:56;;;;;;;14.73;3.58;;;8.40;90.40;;;;;;4876680;29;20044;-78
2024/01/01 11:48:22;;;;;;;11.15;2.70;;;8.40;90.40;;;;;;4875398;29;20400;-79
2024/01/01 11:50:49;;;;;;;7.88;2.45;;;8.40;90.30;;;;;;4878636;29;20056;-78
2024/01/01 11:53:20;;;;;;;8.50;2.53;;;8.40;90.20;;;;;;4880591;29;20053;-79
2024/01/01 11:55:47;;;;;;;13.65;2.17;;;8.40;90.20;;;;;;4870701;29;20050;-78
2024/01/01 11:58:13;;;;;;;10.50;2.70;;;8.40;90.20;;;;;;4874750;29;20044;-78
2024/01/01 12:00:40;;;;;;;9.75;2.78;;;8.40;90.10;;;;;;4879048;29;20407;-79
2024/01/01 12:03:06;;;;;;;11.80;3.08;;;8.40;90.00;;;;;;4877388;29;20124;-79
2024/01/01 12:05:32;;;;;;;11.25;2.92;;;8.50;89.70;;;;;;4880669;29;20066;-78
2024/01/01 12:07:59;;;;;;;12.75;2.33;;;8.70;89.60;;;;;;4878607;29;20037;-78
2024/01/01 12:10:26;;;;;;;11.13;2.65;;;8.40;89.20;;;;;;4880947;29;20418;-79
2024/01/01 12:13:03;;;;;;;13.48;3.00;;;8.40;89.30;;;;;;4874293;29;20041;-79
2024/01/01 12:15:32;;;;;;;9.70;3.25;;;8.50;89.30;;;;;;4874914;29;20041;-79
2024/01/01 12:17:58;;;;;;;11.70;3.78;;;8.40;89.40;;;;;;4877332;29;20193;-77
2024/01/01 12:20:25;;;;;;;22.13;10.00;;;8.40;89.40;;;;;;4891780;29;20064;-78
2024/01/01 12:22:52;;;;;;;23.73;13.10;;;8.40;89.40;;;;;;4873788;29;20045;-77
2024/01/01 12:25:19;;;;;;;18.13;5.72;;;8.40;89.40;;;;;;4875402;29;20045;-77
2024/01/01 12:28:03;;;;;;;14.90;5.15;;;8.40;89.40;;;;;;4875931;29;20052;-77
2024/01/01 12:30:30;;;;;;;11.70;4.20;;;8.40;89.50;;;;;;4879623;29;20041;-77
2024/01/01 12:32:57;;;;;;;16.10;5.38;;;8.40;89.60;;;;;;4877217;29;20556;-77
2024/01/01 12:35:22;;;;;;;13.30;4.40;;;8.40;89.30;;;;;;4877448;29;20068;-77
2024/01/01 12:37:48;;;;;;;13.88;3.33;;;8.40;89.30;;;;;;4877429;29;20394;-78
2024/01/01 12:40:15;;;;;;;18.75;6.65;;;8.40;89.00;;;;;;4879793;29;20052;-77
2024/01/01 12:42:40;;;;;;;14.45;4.10;;;8.40;88.70;;;;;;4877504;29;20132;-77
2024/01/01 12:45:06;;;;;;;16.58;5.35;;;8.40;88.70;;;;;;4878214;29;20129;-78